Britt, Canada
Current Conditions -  °F | °C
As of 5:00 PM on Monday 20 Oct 2014 (Local Time) from CYSB Reporting Station
Light Rain Light Rain  
Wind Chill: 35°   Ceiling: 600
Heat Index: 41°   Visibility: 8mi
Dew Point: 41°   Wind: 10mph
Humidity: 100%   Direction: 50°NE
Pressure: 29.76"   Gusts: NA
Location:  45.78°N, 80.53°W
Report Text: CYSB 202100Z 05009KT 8SM -RA OVC006 05/05 A2976 RMK SF8 CIG VRB 4-8 SLP090
Loading
Personal Weather Stations






























Interactive Weather Map
Tropical Storm Tracking
New forecast layout! Learn more

10-Day Weather Forecast

Advertisements
Track Severe Weather on mobile